< < Back
Terminal Aerodrome Forecast


Current Version              Previous Versions:   1  2  3  4  5  6  7  8  9  

Terminal Aerodrome Forecast

328
FTUS42 KGSP 280531
TAFAVL
TAF
KAVL 280531Z 2806/2906 16003KT P6SM BKN012
     FM281000 00000KT 3SM BR BKN007
      TEMPO 2810/2813 1SM BR OVC005
     FM281300 33003KT P6SM BKN012
     FM281600 16004KT P6SM BKN045 PROB30 2816/2822 4SM TSRA BKN040CB
     FM282200 22005KT P6SM BKN060 PROB30 2822/2903 4SM TSRA BKN040CB
     FM290300 00000KT P6SM BKN080=



Latest METAR

605
SAUS70 KWBC 280600 RRA
MTRAVL
METAR KAVL 280554Z AUTO 12003KT 10SM SCT010 19/17 A3026 RMK AO2 SLP222
T01890172 10228 20183 58007


USA.gov is the U.S. government's official web portal to all federal, state and local government web resources and services.